sensor_id;sensor_type;location;lat;lon;timestamp;pressure;altitude;pressure_sealevel;temperature;humidity
57412;BME280;43247;52.828;-8.980;2023-07-13T00:00:53;101363.88;;;16.49;83.43
57412;BME280;43247;52.828;-8.980;2023-07-13T00:01:53;101365.64;;;16.49;83.46
57412;BME280;43247;52.828;-8.980;2023-07-13T00:02:53;101365.90;;;16.49;83.50
57412;BME280;43247;52.828;-8.980;2023-07-13T00:03:53;101365.51;;;16.49;83.58
57412;BME280;43247;52.828;-8.980;2023-07-13T00:04:53;101366.21;;;16.49;83.54
57412;BME280;43247;52.828;-8.980;2023-07-13T00:05:58;101366.35;;;16.49;83.50
57412;BME280;43247;52.828;-8.980;2023-07-13T00:06:54;101366.56;;;16.49;83.60
57412;BME280;43247;52.828;-8.980;2023-07-13T00:07:54;101365.62;;;16.48;83.60
57412;BME280;43247;52.828;-8.980;2023-07-13T00:08:54;101365.66;;;16.48;83.53
57412;BME280;43247;52.828;-8.980;2023-07-13T00:09:54;101366.35;;;16.48;83.57
57412;BME280;43247;52.828;-8.980;2023-07-13T00:10:54;101366.18;;;16.48;83.57
57412;BME280;43247;52.828;-8.980;2023-07-13T00:11:56;101365.81;;;16.48;83.56
57412;BME280;43247;52.828;-8.980;2023-07-13T00:12:54;101366.57;;;16.48;83.68
57412;BME280;43247;52.828;-8.980;2023-07-13T00:13:55;101368.11;;;16.47;83.76
57412;BME280;43247;52.828;-8.980;2023-07-13T00:14:56;101369.17;;;16.47;83.76
57412;BME280;43247;52.828;-8.980;2023-07-13T00:15:56;101371.50;;;16.47;83.64
57412;BME280;43247;52.828;-8.980;2023-07-13T00:16:56;101369.20;;;16.47;83.63
57412;BME280;43247;52.828;-8.980;2023-07-13T00:17:55;101371.05;;;16.47;83.72
57412;BME280;43247;52.828;-8.980;2023-07-13T00:18:55;101372.62;;;16.47;83.87
57412;BME280;43247;52.828;-8.980;2023-07-13T00:19:56;101371.21;;;16.46;83.78
57412;BME280;43247;52.828;-8.980;2023-07-13T00:20:56;101372.36;;;16.46;83.75
57412;BME280;43247;52.828;-8.980;2023-07-13T00:21:56;101369.83;;;16.46;83.77
57412;BME280;43247;52.828;-8.980;2023-07-13T00:22:56;101371.30;;;16.46;83.85
57412;BME280;43247;52.828;-8.980;2023-07-13T00:23:57;101368.61;;;16.46;83.76
57412;BME280;43247;52.828;-8.980;2023-07-13T00:24:57;101368.50;;;16.46;83.86
57412;BME280;43247;52.828;-8.980;2023-07-13T00:25:57;101368.05;;;16.46;83.77
57412;BME280;43247;52.828;-8.980;2023-07-13T00:26:57;101369.82;;;16.46;83.76
57412;BME280;43247;52.828;-8.980;2023-07-13T00:27:57;101368.57;;;16.46;83.79
57412;BME280;43247;52.828;-8.980;2023-07-13T00:28:58;101367.21;;;16.46;83.82
57412;BME280;43247;52.828;-8.980;2023-07-13T00:29:58;101369.59;;;16.46;83.82
57412;BME280;43247;52.828;-8.980;2023-07-13T00:30:58;101368.35;;;16.46;83.86
57412;BME280;43247;52.828;-8.980;2023-07-13T00:31:58;101367.92;;;16.46;83.79
57412;BME280;43247;52.828;-8.980;2023-07-13T00:32:58;101367.15;;;16.46;83.68
57412;BME280;43247;52.828;-8.980;2023-07-13T00:33:58;101367.17;;;16.46;83.79
57412;BME280;43247;52.828;-8.980;2023-07-13T00:34:58;101366.64;;;16.46;83.79
57412;BME280;43247;52.828;-8.980;2023-07-13T00:35:59;101366.02;;;16.46;83.86
57412;BME280;43247;52.828;-8.980;2023-07-13T00:36:59;101366.98;;;16.46;83.73
57412;BME280;43247;52.828;-8.980;2023-07-13T00:37:59;101365.03;;;16.46;83.64
57412;BME280;43247;52.828;-8.980;2023-07-13T00:38:59;101367.50;;;16.46;83.73
57412;BME280;43247;52.828;-8.980;2023-07-13T00:39:59;101369.12;;;16.45;83.76
57412;BME280;43247;52.828;-8.980;2023-07-13T00:40:59;101368.42;;;16.46;83.70
57412;BME280;43247;52.828;-8.980;2023-07-13T00:42:00;101366.16;;;16.45;83.75
57412;BME280;43247;52.828;-8.980;2023-07-13T00:43:00;101360.44;;;16.46;83.77
57412;BME280;43247;52.828;-8.980;2023-07-13T00:44:00;101358.10;;;16.45;83.86
57412;BME280;43247;52.828;-8.980;2023-07-13T00:45:02;101358.24;;;16.46;83.82
57412;BME280;43247;52.828;-8.980;2023-07-13T00:46:11;101360.05;;;16.45;83.80
57412;BME280;43247;52.828;-8.980;2023-07-13T00:47:00;101357.61;;;16.45;83.86
57412;BME280;43247;52.828;-8.980;2023-07-13T00:48:00;101357.66;;;16.45;83.93
57412;BME280;43247;52.828;-8.980;2023-07-13T00:49:04;101355.06;;;16.45;83.94
57412;BME280;43247;52.828;-8.980;2023-07-13T00:50:01;101354.38;;;16.45;83.93
57412;BME280;43247;52.828;-8.980;2023-07-13T00:51:01;101354.98;;;16.45;83.97
57412;BME280;43247;52.828;-8.980;2023-07-13T00:52:03;101353.47;;;16.45;84.00
57412;BME280;43247;52.828;-8.980;2023-07-13T00:53:02;101353.24;;;16.45;84.20
57412;BME280;43247;52.828;-8.980;2023-07-13T00:54:05;101354.18;;;16.45;84.09
57412;BME280;43247;52.828;-8.980;2023-07-13T00:55:02;101352.18;;;16.45;84.24
57412;BME280;43247;52.828;-8.980;2023-07-13T00:56:03;101352.75;;;16.45;84.20
57412;BME280;43247;52.828;-8.980;2023-07-13T00:57:05;101353.24;;;16.45;84.35
57412;BME280;43247;52.828;-8.980;2023-07-13T00:58:02;101352.12;;;16.45;84.39
57412;BME280;43247;52.828;-8.980;2023-07-13T00:59:06;101351.98;;;16.45;84.44
57412;BME280;43247;52.828;-8.980;2023-07-13T01:00:06;101351.07;;;16.45;84.39
57412;BME280;43247;52.828;-8.980;2023-07-13T01:01:04;101350.38;;;16.45;84.39
57412;BME280;43247;52.828;-8.980;2023-07-13T01:02:04;101349.35;;;16.45;84.57
57412;BME280;43247;52.828;-8.980;2023-07-13T01:03:05;101350.63;;;16.45;84.48
57412;BME280;43247;52.828;-8.980;2023-07-13T01:04:04;101351.22;;;16.45;84.41
57412;BME280;43247;52.828;-8.980;2023-07-13T01:05:09;101351.49;;;16.45;84.44
57412;BME280;43247;52.828;-8.980;2023-07-13T01:06:04;101353.79;;;16.45;84.56
57412;BME280;43247;52.828;-8.980;2023-07-13T01:07:06;101352.23;;;16.44;84.48
57412;BME280;43247;52.828;-8.980;2023-07-13T01:08:05;101353.19;;;16.44;84.46
57412;BME280;43247;52.828;-8.980;2023-07-13T01:09:07;101352.44;;;16.45;84.48
57412;BME280;43247;52.828;-8.980;2023-07-13T01:10:07;101352.29;;;16.45;84.54
57412;BME280;43247;52.828;-8.980;2023-07-13T01:11:06;101352.10;;;16.45;84.54
57412;BME280;43247;52.828;-8.980;2023-07-13T01:12:07;101352.24;;;16.45;84.59
57412;BME280;43247;52.828;-8.980;2023-07-13T01:13:07;101350.39;;;16.45;84.57
57412;BME280;43247;52.828;-8.980;2023-07-13T01:14:07;101349.89;;;16.44;84.58
57412;BME280;43247;52.828;-8.980;2023-07-13T01:16:15;101348.47;;;16.44;84.48
57412;BME280;43247;52.828;-8.980;2023-07-13T01:17:10;101348.10;;;16.44;84.46
57412;BME280;43247;52.828;-8.980;2023-07-13T01:18:09;101347.95;;;16.44;84.44
57412;BME280;43247;52.828;-8.980;2023-07-13T01:19:13;101349.30;;;16.44;84.54
57412;BME280;43247;52.828;-8.980;2023-07-13T01:20:08;101348.27;;;16.44;84.47
57412;BME280;43247;52.828;-8.980;2023-07-13T01:21:07;101350.86;;;16.44;84.53
57412;BME280;43247;52.828;-8.980;2023-07-13T01:22:09;101347.99;;;16.44;84.47
57412;BME280;43247;52.828;-8.980;2023-07-13T01:23:10;101348.49;;;16.44;84.57
57412;BME280;43247;52.828;-8.980;2023-07-13T01:24:08;101349.80;;;16.44;84.46
57412;BME280;43247;52.828;-8.980;2023-07-13T01:25:09;101349.77;;;16.44;84.36
57412;BME280;43247;52.828;-8.980;2023-07-13T01:26:09;101346.38;;;16.44;84.32
57412;BME280;43247;52.828;-8.980;2023-07-13T01:27:10;101345.42;;;16.44;84.48
57412;BME280;43247;52.828;-8.980;2023-07-13T01:28:09;101344.61;;;16.44;84.42
57412;BME280;43247;52.828;-8.980;2023-07-13T01:29:09;101346.65;;;16.45;84.43
57412;BME280;43247;52.828;-8.980;2023-07-13T01:30:10;101346.89;;;16.44;84.39
57412;BME280;43247;52.828;-8.980;2023-07-13T01:31:10;101345.33;;;16.44;84.50
57412;BME280;43247;52.828;-8.980;2023-07-13T01:32:11;101347.11;;;16.44;84.40
57412;BME280;43247;52.828;-8.980;2023-07-13T01:33:10;101348.21;;;16.44;84.37
57412;BME280;43247;52.828;-8.980;2023-07-13T01:34:10;101348.96;;;16.45;84.44
57412;BME280;43247;52.828;-8.980;2023-07-13T01:35:10;101347.78;;;16.44;84.38
57412;BME280;43247;52.828;-8.980;2023-07-13T01:36:11;101344.64;;;16.44;84.44
57412;BME280;43247;52.828;-8.980;2023-07-13T01:37:11;101347.81;;;16.44;84.45
57412;BME280;43247;52.828;-8.980;2023-07-13T01:38:11;101344.29;;;16.44;84.52
57412;BME280;43247;52.828;-8.980;2023-07-13T01:39:11;101344.85;;;16.44;84.49
57412;BME280;43247;52.828;-8.980;2023-07-13T01:40:12;101343.96;;;16.44;84.49
57412;BME280;43247;52.828;-8.980;2023-07-13T01:41:11;101341.81;;;16.44;84.42
57412;BME280;43247;52.828;-8.980;2023-07-13T01:42:11;101344.19;;;16.44;84.45
57412;BME280;43247;52.828;-8.980;2023-07-13T01:43:11;101344.91;;;16.44;84.50
57412;BME280;43247;52.828;-8.980;2023-07-13T01:44:11;101344.66;;;16.44;84.64
57412;BME280;43247;52.828;-8.980;2023-07-13T01:45:11;101347.73;;;16.45;84.48
57412;BME280;43247;52.828;-8.980;2023-07-13T01:46:12;101347.77;;;16.44;84.52
57412;BME280;43247;52.828;-8.980;2023-07-13T01:47:12;101345.74;;;16.44;84.49
57412;BME280;43247;52.828;-8.980;2023-07-13T01:48:13;101343.62;;;16.44;84.52
57412;BME280;43247;52.828;-8.980;2023-07-13T01:49:12;101343.64;;;16.44;84.50
57412;BME280;43247;52.828;-8.980;2023-07-13T01:50:12;101343.90;;;16.44;84.53
57412;BME280;43247;52.828;-8.980;2023-07-13T01:51:12;101343.81;;;16.44;84.49
57412;BME280;43247;52.828;-8.980;2023-07-13T01:52:13;101343.57;;;16.44;84.56
57412;BME280;43247;52.828;-8.980;2023-07-13T01:53:13;101344.89;;;16.44;84.50
57412;BME280;43247;52.828;-8.980;2023-07-13T01:54:13;101345.35;;;16.43;84.41
57412;BME280;43247;52.828;-8.980;2023-07-13T01:55:13;101342.69;;;16.43;84.56
57412;BME280;43247;52.828;-8.980;2023-07-13T01:56:13;101340.63;;;16.43;84.52
57412;BME280;43247;52.828;-8.980;2023-07-13T01:57:13;101338.46;;;16.43;84.71
57412;BME280;43247;52.828;-8.980;2023-07-13T01:58:13;101335.44;;;16.43;84.61
57412;BME280;43247;52.828;-8.980;2023-07-13T01:59:14;101333.55;;;16.43;84.64
57412;BME280;43247;52.828;-8.980;2023-07-13T02:00:14;101335.35;;;16.43;84.71
57412;BME280;43247;52.828;-8.980;2023-07-13T02:01:14;101334.74;;;16.44;84.70
57412;BME280;43247;52.828;-8.980;2023-07-13T02:02:14;101335.05;;;16.43;84.66
57412;BME280;43247;52.828;-8.980;2023-07-13T02:03:14;101338.41;;;16.44;84.69
57412;BME280;43247;52.828;-8.980;2023-07-13T02:04:14;101342.20;;;16.44;84.78
57412;BME280;43247;52.828;-8.980;2023-07-13T02:05:15;101341.61;;;16.43;84.67
57412;BME280;43247;52.828;-8.980;2023-07-13T02:06:15;101338.88;;;16.43;84.69
57412;BME280;43247;52.828;-8.980;2023-07-13T02:07:15;101338.95;;;16.43;84.73
57412;BME280;43247;52.828;-8.980;2023-07-13T02:08:15;101338.83;;;16.43;84.63
57412;BME280;43247;52.828;-8.980;2023-07-13T02:09:15;101334.83;;;16.43;84.64
57412;BME280;43247;52.828;-8.980;2023-07-13T02:10:16;101335.87;;;16.43;84.89
57412;BME280;43247;52.828;-8.980;2023-07-13T02:11:15;101334.56;;;16.43;84.73
57412;BME280;43247;52.828;-8.980;2023-07-13T02:12:16;101332.92;;;16.43;84.67
57412;BME280;43247;52.828;-8.980;2023-07-13T02:13:16;101335.19;;;16.43;84.58
57412;BME280;43247;52.828;-8.980;2023-07-13T02:14:16;101335.23;;;16.42;84.77
57412;BME280;43247;52.828;-8.980;2023-07-13T02:15:17;101337.36;;;16.42;84.70
57412;BME280;43247;52.828;-8.980;2023-07-13T02:16:17;101339.72;;;16.42;84.81
57412;BME280;43247;52.828;-8.980;2023-07-13T02:17:17;101339.43;;;16.42;84.79
57412;BME280;43247;52.828;-8.980;2023-07-13T02:18:17;101340.58;;;16.42;84.71
57412;BME280;43247;52.828;-8.980;2023-07-13T02:19:17;101339.88;;;16.41;84.64
57412;BME280;43247;52.828;-8.980;2023-07-13T02:20:18;101341.36;;;16.41;84.74
57412;BME280;43247;52.828;-8.980;2023-07-13T02:21:18;101338.83;;;16.41;84.77
57412;BME280;43247;52.828;-8.980;2023-07-13T02:22:18;101340.28;;;16.41;84.77
57412;BME280;43247;52.828;-8.980;2023-07-13T02:23:18;101336.12;;;16.41;84.72
57412;BME280;43247;52.828;-8.980;2023-07-13T02:24:19;101336.47;;;16.40;84.73
57412;BME280;43247;52.828;-8.980;2023-07-13T02:25:19;101333.40;;;16.40;84.73
57412;BME280;43247;52.828;-8.980;2023-07-13T02:26:19;101337.24;;;16.40;84.64
57412;BME280;43247;52.828;-8.980;2023-07-13T02:27:19;101338.54;;;16.39;84.73
57412;BME280;43247;52.828;-8.980;2023-07-13T02:28:20;101341.92;;;16.39;84.80
57412;BME280;43247;52.828;-8.980;2023-07-13T02:29:20;101342.54;;;16.39;84.60
57412;BME280;43247;52.828;-8.980;2023-07-13T02:30:20;101342.95;;;16.39;84.66
57412;BME280;43247;52.828;-8.980;2023-07-13T02:31:20;101342.53;;;16.39;84.59
57412;BME280;43247;52.828;-8.980;2023-07-13T02:32:20;101340.49;;;16.39;84.56
57412;BME280;43247;52.828;-8.980;2023-07-13T02:33:20;101338.86;;;16.38;84.62
57412;BME280;43247;52.828;-8.980;2023-07-13T02:34:21;101338.67;;;16.38;84.56
57412;BME280;43247;52.828;-8.980;2023-07-13T02:35:21;101337.80;;;16.38;84.67
57412;BME280;43247;52.828;-8.980;2023-07-13T02:36:21;101339.20;;;16.37;84.61
57412;BME280;43247;52.828;-8.980;2023-07-13T02:37:21;101339.76;;;16.37;84.61
57412;BME280;43247;52.828;-8.980;2023-07-13T02:38:21;101338.02;;;16.36;84.63
57412;BME280;43247;52.828;-8.980;2023-07-13T02:39:21;101337.97;;;16.36;84.69
57412;BME280;43247;52.828;-8.980;2023-07-13T02:40:22;101335.62;;;16.36;84.57
57412;BME280;43247;52.828;-8.980;2023-07-13T02:41:22;101334.19;;;16.36;84.60
57412;BME280;43247;52.828;-8.980;2023-07-13T02:42:22;101336.08;;;16.36;84.64
57412;BME280;43247;52.828;-8.980;2023-07-13T02:43:22;101336.58;;;16.35;84.57
57412;BME280;43247;52.828;-8.980;2023-07-13T02:44:22;101334.67;;;16.34;84.62
57412;BME280;43247;52.828;-8.980;2023-07-13T02:45:23;101336.43;;;16.35;84.60
57412;BME280;43247;52.828;-8.980;2023-07-13T02:46:23;101337.11;;;16.34;84.57
57412;BME280;43247;52.828;-8.980;2023-07-13T02:47:23;101337.58;;;16.33;84.55
57412;BME280;43247;52.828;-8.980;2023-07-13T02:48:23;101338.81;;;16.33;84.64
57412;BME280;43247;52.828;-8.980;2023-07-13T02:49:23;101340.43;;;16.33;84.61
57412;BME280;43247;52.828;-8.980;2023-07-13T02:50:24;101339.39;;;16.32;84.67
57412;BME280;43247;52.828;-8.980;2023-07-13T02:51:24;101340.85;;;16.32;84.64
57412;BME280;43247;52.828;-8.980;2023-07-13T02:52:24;101339.46;;;16.32;84.70
57412;BME280;43247;52.828;-8.980;2023-07-13T02:53:24;101340.93;;;16.31;84.65
57412;BME280;43247;52.828;-8.980;2023-07-13T02:54:24;101339.93;;;16.30;84.60
57412;BME280;43247;52.828;-8.980;2023-07-13T02:55:24;101341.70;;;16.30;84.60
57412;BME280;43247;52.828;-8.980;2023-07-13T02:56:26;101338.09;;;16.29;84.64
57412;BME280;43247;52.828;-8.980;2023-07-13T02:57:25;101336.66;;;16.29;84.70
57412;BME280;43247;52.828;-8.980;2023-07-13T02:58:25;101338.84;;;16.29;84.64
57412;BME280;43247;52.828;-8.980;2023-07-13T02:59:26;101338.32;;;16.28;84.67
57412;BME280;43247;52.828;-8.980;2023-07-13T03:00:26;101337.43;;;16.26;84.61
57412;BME280;43247;52.828;-8.980;2023-07-13T03:01:26;101338.09;;;16.26;84.51
57412;BME280;43247;52.828;-8.980;2023-07-13T03:02:26;101338.74;;;16.26;84.69
57412;BME280;43247;52.828;-8.980;2023-07-13T03:03:26;101340.01;;;16.25;84.60
57412;BME280;43247;52.828;-8.980;2023-07-13T03:04:26;101339.58;;;16.26;84.56
57412;BME280;43247;52.828;-8.980;2023-07-13T03:05:27;101338.35;;;16.26;84.57
57412;BME280;43247;52.828;-8.980;2023-07-13T03:06:27;101338.44;;;16.25;84.57
57412;BME280;43247;52.828;-8.980;2023-07-13T03:07:27;101340.29;;;16.25;84.61
57412;BME280;43247;52.828;-8.980;2023-07-13T03:08:28;101340.51;;;16.24;84.54
57412;BME280;43247;52.828;-8.980;2023-07-13T03:09:28;101338.65;;;16.24;84.56
57412;BME280;43247;52.828;-8.980;2023-07-13T03:10:28;101338.78;;;16.23;84.69
57412;BME280;43247;52.828;-8.980;2023-07-13T03:11:28;101336.65;;;16.23;84.63
57412;BME280;43247;52.828;-8.980;2023-07-13T03:12:28;101335.88;;;16.22;84.55
57412;BME280;43247;52.828;-8.980;2023-07-13T03:13:28;101337.93;;;16.22;84.57
57412;BME280;43247;52.828;-8.980;2023-07-13T03:14:28;101334.86;;;16.21;84.57
57412;BME280;43247;52.828;-8.980;2023-07-13T03:15:29;101334.84;;;16.21;84.64
57412;BME280;43247;52.828;-8.980;2023-07-13T03:16:29;101334.80;;;16.21;84.57
57412;BME280;43247;52.828;-8.980;2023-07-13T03:17:29;101335.93;;;16.20;84.44
57412;BME280;43247;52.828;-8.980;2023-07-13T03:18:29;101338.20;;;16.20;84.48
57412;BME280;43247;52.828;-8.980;2023-07-13T03:19:29;101335.97;;;16.19;84.52
57412;BME280;43247;52.828;-8.980;2023-07-13T03:20:32;101333.96;;;16.19;84.48
57412;BME280;43247;52.828;-8.980;2023-07-13T03:21:30;101332.82;;;16.19;84.55
57412;BME280;43247;52.828;-8.980;2023-07-13T03:22:30;101332.42;;;16.18;84.38
57412;BME280;43247;52.828;-8.980;2023-07-13T03:23:30;101333.14;;;16.18;84.40
57412;BME280;43247;52.828;-8.980;2023-07-13T03:24:31;101332.61;;;16.18;84.31
57412;BME280;43247;52.828;-8.980;2023-07-13T03:25:30;101333.31;;;16.18;84.38
57412;BME280;43247;52.828;-8.980;2023-07-13T03:26:30;101334.25;;;16.18;84.30
57412;BME280;43247;52.828;-8.980;2023-07-13T03:27:31;101334.56;;;16.17;84.36
57412;BME280;43247;52.828;-8.980;2023-07-13T03:28:31;101336.04;;;16.17;84.47
57412;BME280;43247;52.828;-8.980;2023-07-13T03:29:31;101335.38;;;16.17;84.30
57412;BME280;43247;52.828;-8.980;2023-07-13T03:30:31;101337.61;;;16.16;84.48
57412;BME280;43247;52.828;-8.980;2023-07-13T03:31:34;101336.83;;;16.17;84.48
57412;BME280;43247;52.828;-8.980;2023-07-13T03:32:31;101338.01;;;16.16;84.44
57412;BME280;43247;52.828;-8.980;2023-07-13T03:33:32;101338.84;;;16.16;84.41
57412;BME280;43247;52.828;-8.980;2023-07-13T03:34:32;101338.86;;;16.16;84.37
57412;BME280;43247;52.828;-8.980;2023-07-13T03:35:32;101337.83;;;16.16;84.44
57412;BME280;43247;52.828;-8.980;2023-07-13T03:36:32;101336.13;;;16.15;84.47
57412;BME280;43247;52.828;-8.980;2023-07-13T03:37:32;101336.26;;;16.15;84.47
57412;BME280;43247;52.828;-8.980;2023-07-13T03:38:33;101338.75;;;16.14;84.38
57412;BME280;43247;52.828;-8.980;2023-07-13T03:39:33;101337.64;;;16.14;84.42
57412;BME280;43247;52.828;-8.980;2023-07-13T03:40:33;101337.01;;;16.14;84.40
57412;BME280;43247;52.828;-8.980;2023-07-13T03:41:33;101336.94;;;16.13;84.40
57412;BME280;43247;52.828;-8.980;2023-07-13T03:42:33;101335.22;;;16.13;84.51
57412;BME280;43247;52.828;-8.980;2023-07-13T03:43:34;101334.69;;;16.13;84.45
57412;BME280;43247;52.828;-8.980;2023-07-13T03:44:35;101335.77;;;16.13;84.47
57412;BME280;43247;52.828;-8.980;2023-07-13T03:45:34;101337.16;;;16.12;84.48
57412;BME280;43247;52.828;-8.980;2023-07-13T03:46:34;101333.69;;;16.12;84.54
57412;BME280;43247;52.828;-8.980;2023-07-13T03:47:34;101333.88;;;16.12;84.62
57412;BME280;43247;52.828;-8.980;2023-07-13T03:48:35;101333.72;;;16.12;84.52
57412;BME280;43247;52.828;-8.980;2023-07-13T03:49:35;101335.14;;;16.12;84.61
57412;BME280;43247;52.828;-8.980;2023-07-13T03:50:35;101335.04;;;16.11;84.54
57412;BME280;43247;52.828;-8.980;2023-07-13T03:51:35;101333.93;;;16.11;84.45
57412;BME280;43247;52.828;-8.980;2023-07-13T03:52:36;101334.32;;;16.11;84.52
57412;BME280;43247;52.828;-8.980;2023-07-13T03:53:39;101337.91;;;16.11;84.50
57412;BME280;43247;52.828;-8.980;2023-07-13T03:54:36;101339.89;;;16.10;84.49
57412;BME280;43247;52.828;-8.980;2023-07-13T03:55:36;101341.82;;;16.10;84.52
57412;BME280;43247;52.828;-8.980;2023-07-13T03:56:36;101342.16;;;16.09;84.53
57412;BME280;43247;52.828;-8.980;2023-07-13T03:57:36;101341.22;;;16.09;84.56
57412;BME280;43247;52.828;-8.980;2023-07-13T03:58:38;101340.33;;;16.09;84.56
57412;BME280;43247;52.828;-8.980;2023-07-13T03:59:37;101337.44;;;16.08;84.53
57412;BME280;43247;52.828;-8.980;2023-07-13T04:00:37;101338.84;;;16.08;84.64
57412;BME280;43247;52.828;-8.980;2023-07-13T04:01:38;101339.76;;;16.08;84.56
57412;BME280;43247;52.828;-8.980;2023-07-13T04:02:37;101339.66;;;16.07;84.55
57412;BME280;43247;52.828;-8.980;2023-07-13T04:03:37;101343.18;;;16.07;84.57
57412;BME280;43247;52.828;-8.980;2023-07-13T04:04:38;101342.12;;;16.07;84.60
57412;BME280;43247;52.828;-8.980;2023-07-13T04:05:38;101340.93;;;16.07;84.60
57412;BME280;43247;52.828;-8.980;2023-07-13T04:06:38;101340.64;;;16.07;84.54
57412;BME280;43247;52.828;-8.980;2023-07-13T04:07:38;101340.41;;;16.06;84.54
57412;BME280;43247;52.828;-8.980;2023-07-13T04:08:39;101340.16;;;16.06;84.55
57412;BME280;43247;52.828;-8.980;2023-07-13T04:09:40;101337.58;;;16.06;84.51
57412;BME280;43247;52.828;-8.980;2023-07-13T04:10:40;101339.97;;;16.06;84.46
57412;BME280;43247;52.828;-8.980;2023-07-13T04:11:40;101340.64;;;16.05;84.53
57412;BME280;43247;52.828;-8.980;2023-07-13T04:12:41;101342.04;;;16.05;84.56
57412;BME280;43247;52.828;-8.980;2023-07-13T04:13:41;101344.21;;;16.05;84.58
57412;BME280;43247;52.828;-8.980;2023-07-13T04:14:41;101347.56;;;16.05;84.53
57412;BME280;43247;52.828;-8.980;2023-07-13T04:15:42;101350.74;;;16.04;84.48
57412;BME280;43247;52.828;-8.980;2023-07-13T04:16:42;101350.33;;;16.04;84.48
57412;BME280;43247;52.828;-8.980;2023-07-13T04:17:42;101350.07;;;16.04;84.54
57412;BME280;43247;52.828;-8.980;2023-07-13T04:18:43;101351.44;;;16.03;84.57
57412;BME280;43247;52.828;-8.980;2023-07-13T04:19:43;101352.04;;;16.03;84.52
57412;BME280;43247;52.828;-8.980;2023-07-13T04:20:43;101351.04;;;16.03;84.45
57412;BME280;43247;52.828;-8.980;2023-07-13T04:21:44;101350.43;;;16.03;84.48
57412;BME280;43247;52.828;-8.980;2023-07-13T04:22:44;101351.80;;;16.03;84.51
57412;BME280;43247;52.828;-8.980;2023-07-13T04:23:44;101352.66;;;16.03;84.48
57412;BME280;43247;52.828;-8.980;2023-07-13T04:24:44;101354.53;;;16.02;84.42
57412;BME280;43247;52.828;-8.980;2023-07-13T04:25:44;101353.79;;;16.02;84.49
57412;BME280;43247;52.828;-8.980;2023-07-13T04:26:44;101354.91;;;16.02;84.50
57412;BME280;43247;52.828;-8.980;2023-07-13T04:27:44;101354.12;;;16.01;84.45
57412;BME280;43247;52.828;-8.980;2023-07-13T04:28:45;101356.10;;;16.01;84.54
57412;BME280;43247;52.828;-8.980;2023-07-13T04:29:45;101353.80;;;16.00;84.52
57412;BME280;43247;52.828;-8.980;2023-07-13T04:30:45;101354.21;;;16.00;84.55
57412;BME280;43247;52.828;-8.980;2023-07-13T04:31:45;101353.30;;;16.00;84.51
57412;BME280;43247;52.828;-8.980;2023-07-13T04:32:46;101355.05;;;16.00;84.49
57412;BME280;43247;52.828;-8.980;2023-07-13T04:33:45;101356.37;;;16.00;84.52
57412;BME280;43247;52.828;-8.980;2023-07-13T04:34:46;101357.67;;;16.00;84.45
57412;BME280;43247;52.828;-8.980;2023-07-13T04:35:46;101359.42;;;15.99;84.72
57412;BME280;43247;52.828;-8.980;2023-07-13T04:36:46;101361.51;;;15.99;84.55
57412;BME280;43247;52.828;-8.980;2023-07-13T04:37:47;101359.65;;;15.99;84.62
57412;BME280;43247;52.828;-8.980;2023-07-13T04:38:46;101359.31;;;15.98;84.59
57412;BME280;43247;52.828;-8.980;2023-07-13T04:39:46;101359.78;;;15.98;84.59
57412;BME280;43247;52.828;-8.980;2023-07-13T04:40:48;101360.21;;;15.98;84.65
57412;BME280;43247;52.828;-8.980;2023-07-13T04:41:47;101360.70;;;15.98;84.61
57412;BME280;43247;52.828;-8.980;2023-07-13T04:42:47;101360.62;;;15.97;84.65
57412;BME280;43247;52.828;-8.980;2023-07-13T04:43:47;101361.62;;;15.96;84.61
57412;BME280;43247;52.828;-8.980;2023-07-13T04:44:48;101362.26;;;15.96;84.72
57412;BME280;43247;52.828;-8.980;2023-07-13T04:45:47;101363.48;;;15.96;84.70
57412;BME280;43247;52.828;-8.980;2023-07-13T04:46:48;101362.97;;;15.95;84.74
57412;BME280;43247;52.828;-8.980;2023-07-13T04:47:48;101363.95;;;15.94;84.72
57412;BME280;43247;52.828;-8.980;2023-07-13T04:48:49;101366.84;;;15.94;84.74
57412;BME280;43247;52.828;-8.980;2023-07-13T04:49:48;101365.44;;;15.93;84.71
57412;BME280;43247;52.828;-8.980;2023-07-13T04:50:55;101367.47;;;15.92;84.64
57412;BME280;43247;52.828;-8.980;2023-07-13T04:51:49;101369.21;;;15.92;84.64
57412;BME280;43247;52.828;-8.980;2023-07-13T04:52:49;101366.51;;;15.92;84.71
57412;BME280;43247;52.828;-8.980;2023-07-13T04:53:50;101369.80;;;15.92;84.67
57412;BME280;43247;52.828;-8.980;2023-07-13T04:54:50;101371.07;;;15.91;84.61
57412;BME280;43247;52.828;-8.980;2023-07-13T04:55:50;101370.86;;;15.91;84.58
57412;BME280;43247;52.828;-8.980;2023-07-13T04:56:50;101368.41;;;15.91;84.51
57412;BME280;43247;52.828;-8.980;2023-07-13T04:57:50;101371.23;;;15.90;84.45
57412;BME280;43247;52.828;-8.980;2023-07-13T04:58:51;101367.00;;;15.90;84.45
57412;BME280;43247;52.828;-8.980;2023-07-13T04:59:51;101367.42;;;15.90;84.50
57412;BME280;43247;52.828;-8.980;2023-07-13T05:00:51;101366.17;;;15.89;84.55
57412;BME280;43247;52.828;-8.980;2023-07-13T05:01:52;101364.58;;;15.89;84.64
57412;BME280;43247;52.828;-8.980;2023-07-13T05:02:53;101364.18;;;15.89;84.53
57412;BME280;43247;52.828;-8.980;2023-07-13T05:03:52;101365.58;;;15.89;84.42
57412;BME280;43247;52.828;-8.980;2023-07-13T05:04:52;101364.88;;;15.89;84.42
57412;BME280;43247;52.828;-8.980;2023-07-13T05:05:56;101361.70;;;15.88;84.41
57412;BME280;43247;52.828;-8.980;2023-07-13T05:06:52;101361.20;;;15.89;84.50
57412;BME280;43247;52.828;-8.980;2023-07-13T05:07:53;101362.91;;;15.88;84.50
57412;BME280;43247;52.828;-8.980;2023-07-13T05:08:53;101363.40;;;15.88;84.41
57412;BME280;43247;52.828;-8.980;2023-07-13T05:09:53;101364.07;;;15.88;84.41
57412;BME280;43247;52.828;-8.980;2023-07-13T05:10:54;101360.24;;;15.88;84.46
57412;BME280;43247;52.828;-8.980;2023-07-13T05:11:54;101362.33;;;15.88;84.42